createdAt,value
2022-10-30T00:01:46.899Z,98.30
2022-10-30T00:04:20.198Z,99.90
2022-10-30T00:06:51.202Z,99.90
2022-10-30T00:09:23.923Z,99.90
2022-10-30T00:11:54.015Z,99.90
2022-10-30T00:14:24.117Z,99.90
2022-10-30T00:16:54.273Z,99.90
2022-10-30T00:19:24.502Z,99.90
2022-10-30T00:24:27.660Z,99.90
2022-10-30T00:26:57.780Z,99.90
2022-10-30T00:29:27.921Z,99.90
2022-10-30T00:32:08.571Z,99.90
2022-10-30T00:34:41.292Z,99.90
2022-10-30T00:37:11.342Z,99.90
2022-10-30T00:39:47.187Z,99.90
2022-10-30T00:42:19.860Z,99.90
2022-10-30T00:44:53.536Z,99.90
2022-10-30T00:47:31.639Z,99.90
2022-10-30T00:50:12.838Z,99.90
2022-10-30T00:52:49.218Z,99.90
2022-10-30T00:55:27.929Z,99.90
2022-10-30T00:57:58.533Z,99.90
2022-10-30T01:00:36.292Z,99.90
2022-10-30T01:03:07.795Z,99.90
2022-10-30T01:05:39.661Z,99.90
2022-10-30T01:08:09.853Z,99.90
2022-10-30T01:10:50.933Z,99.90
2022-10-30T01:13:28.620Z,99.90
2022-10-30T01:16:36.178Z,99.90
2022-10-30T01:19:19.060Z,99.90
2022-10-30T01:22:14.188Z,99.90
2022-10-30T01:25:07.086Z,99.90
2022-10-30T01:27:54.348Z,99.90
2022-10-30T01:30:51.166Z,99.90
2022-10-30T01:33:39.426Z,99.90
2022-10-30T01:36:23.188Z,99.90
2022-10-30T01:38:59.431Z,99.90
2022-10-30T01:41:29.620Z,99.90
2022-10-30T01:44:11.541Z,99.90
2022-10-30T01:47:05.711Z,99.90
2022-10-30T01:50:19.288Z,99.90
2022-10-30T01:53:02.937Z,99.90
2022-10-30T01:55:49.060Z,99.90
2022-10-30T01:58:26.200Z,99.90
2022-10-30T02:01:02.187Z,99.90
2022-10-30T02:03:39.720Z,99.90
2022-10-30T02:06:10.129Z,99.90
2022-10-30T02:08:43.098Z,99.90
2022-10-30T02:11:13.770Z,99.90
2022-10-30T02:13:44.134Z,99.90
2022-10-30T02:16:19.138Z,99.90
2022-10-30T02:18:49.250Z,99.90
2022-10-30T02:21:22.098Z,99.90
2022-10-30T02:23:52.164Z,99.90
2022-10-30T02:26:22.214Z,99.90
2022-10-30T02:28:52.459Z,99.90
2022-10-30T02:31:22.824Z,99.90
2022-10-30T02:34:01.475Z,99.90
2022-10-30T02:36:41.809Z,99.90
2022-10-30T02:39:15.495Z,99.90
2022-10-30T02:41:48.624Z,99.90
2022-10-30T02:44:21.526Z,99.90
2022-10-30T02:46:57.082Z,99.90
2022-10-30T02:49:27.318Z,99.90
2022-10-30T02:52:02.430Z,99.90
2022-10-30T02:54:32.591Z,99.90
2022-10-30T02:57:05.289Z,99.90
2022-10-30T02:59:35.386Z,99.90
2022-10-30T03:02:05.480Z,99.90
2022-10-30T03:04:35.573Z,99.90
2022-10-30T03:07:10.737Z,99.90
2022-10-30T03:09:40.823Z,99.90
2022-10-30T03:12:11.122Z,99.90
2022-10-30T03:14:43.802Z,99.90
2022-10-30T03:17:13.897Z,99.90
2022-10-30T03:19:47.021Z,99.90
2022-10-30T03:22:19.647Z,99.90
2022-10-30T03:24:49.843Z,99.90
2022-10-30T03:27:20.267Z,99.90
2022-10-30T03:29:50.387Z,99.90
2022-10-30T03:32:20.578Z,99.90
2022-10-30T03:34:50.718Z,99.90
2022-10-30T03:37:28.519Z,99.90
2022-10-30T03:40:03.709Z,99.90
2022-10-30T03:42:33.843Z,99.90
2022-10-30T03:45:03.931Z,99.90
2022-10-30T03:47:33.989Z,99.90
2022-10-30T03:50:07.749Z,99.90
2022-10-30T03:52:42.919Z,99.90
2022-10-30T03:55:13.222Z,99.90
2022-10-30T03:57:43.285Z,99.90
2022-10-30T04:00:18.001Z,99.90
2022-10-30T04:02:49.527Z,99.90
2022-10-30T04:05:27.393Z,99.90
2022-10-30T04:08:05.931Z,99.90
2022-10-30T04:10:41.800Z,99.90
2022-10-30T04:13:29.717Z,99.90
2022-10-30T04:15:59.920Z,99.90
2022-10-30T04:18:33.463Z,99.90
2022-10-30T04:21:06.462Z,99.90
2022-10-30T04:23:39.191Z,99.90
2022-10-30T04:26:09.328Z,99.90
2022-10-30T04:28:39.446Z,99.90
2022-10-30T04:31:09.601Z,99.90
2022-10-30T04:33:47.330Z,99.90
2022-10-30T04:36:18.147Z,99.90
2022-10-30T04:38:52.924Z,99.90
2022-10-30T04:41:23.093Z,99.90
2022-10-30T04:43:53.222Z,99.90
2022-10-30T04:46:23.335Z,99.90
2022-10-30T04:48:59.231Z,99.90
2022-10-30T04:51:36.786Z,99.90
2022-10-30T04:54:09.666Z,99.90
2022-10-30T04:56:39.772Z,99.90
2022-10-30T04:59:12.810Z,99.90
2022-10-30T05:01:42.953Z,99.90
2022-10-30T05:04:13.083Z,99.90
2022-10-30T05:06:43.231Z,99.90
2022-10-30T05:09:15.897Z,99.90
2022-10-30T05:11:46.006Z,99.90
2022-10-30T05:14:16.066Z,99.90
2022-10-30T05:16:49.127Z,99.90
2022-10-30T05:19:19.224Z,99.90
2022-10-30T05:21:49.349Z,99.90
2022-10-30T05:24:22.065Z,99.90
2022-10-30T05:26:52.167Z,99.90
2022-10-30T05:29:22.290Z,99.90
2022-10-30T05:31:52.619Z,99.90
2022-10-30T05:34:27.949Z,99.90
2022-10-30T05:36:58.011Z,99.90
2022-10-30T05:39:30.688Z,99.90
2022-10-30T05:42:09.805Z,99.90
2022-10-30T05:45:02.282Z,99.90
2022-10-30T05:47:32.716Z,99.90
2022-10-30T05:50:06.150Z,99.90
2022-10-30T05:52:36.624Z,99.90
2022-10-30T05:55:10.335Z,99.90
2022-10-30T05:57:45.683Z,99.90
2022-10-30T06:00:23.058Z,99.90
2022-10-30T06:02:53.189Z,99.90
2022-10-30T06:05:23.255Z,99.90
2022-10-30T06:07:53.349Z,99.90
2022-10-30T06:10:26.286Z,99.90
2022-10-30T06:13:04.458Z,99.90
2022-10-30T06:15:37.838Z,99.90
2022-10-30T06:18:08.368Z,99.90
2022-10-30T06:20:38.763Z,99.90
2022-10-30T06:23:12.342Z,99.90
2022-10-30T06:25:45.032Z,99.90
2022-10-30T06:28:18.510Z,99.90
2022-10-30T06:30:48.566Z,99.90
2022-10-30T06:33:18.622Z,99.90
2022-10-30T06:35:50.967Z,99.90
2022-10-30T06:38:21.040Z,99.90
2022-10-30T06:40:59.865Z,99.90
2022-10-30T06:43:29.973Z,99.90
2022-10-30T06:46:01.073Z,99.90
2022-10-30T06:48:36.943Z,99.90
2022-10-30T06:51:22.624Z,99.90
2022-10-30T06:53:52.654Z,99.90
2022-10-30T06:56:30.539Z,99.90
2022-10-30T06:59:03.690Z,99.90
2022-10-30T07:01:33.874Z,99.90
2022-10-30T07:04:06.823Z,99.90
2022-10-30T07:06:36.911Z,99.90
2022-10-30T07:09:09.535Z,99.90
2022-10-30T07:11:45.931Z,99.90
2022-10-30T07:14:16.042Z,99.90
2022-10-30T07:16:46.131Z,99.90
2022-10-30T07:19:16.409Z,99.90
2022-10-30T07:21:46.598Z,99.90
2022-10-30T07:24:16.813Z,99.90
2022-10-30T07:26:49.615Z,99.90
2022-10-30T07:29:19.718Z,99.90
2022-10-30T07:32:02.324Z,99.90
2022-10-30T07:34:34.513Z,99.90
2022-10-30T07:37:04.609Z,99.90
2022-10-30T07:39:34.803Z,99.90
2022-10-30T07:42:07.725Z,99.90
2022-10-30T07:44:46.560Z,1.00
2022-10-30T07:47:16.671Z,1.00
2022-10-30T07:49:46.758Z,1.00
2022-10-30T07:52:25.923Z,1.00
2022-10-30T07:54:56.175Z,1.00
2022-10-30T07:57:34.134Z,99.90
2022-10-30T08:00:04.859Z,99.90
2022-10-30T08:02:35.671Z,1.00
2022-10-30T08:05:09.539Z,1.00
2022-10-30T08:07:44.383Z,1.00
2022-10-30T08:10:14.581Z,1.00
2022-10-30T08:12:48.256Z,99.90
2022-10-30T08:15:18.769Z,1.00
2022-10-30T08:17:51.826Z,99.90
2022-10-30T08:20:26.058Z,1.00
2022-10-30T08:22:59.333Z,1.00
2022-10-30T08:25:32.780Z,99.90
2022-10-30T08:28:08.574Z,1.00
2022-10-30T08:30:40.926Z,1.00
2022-10-30T08:33:16.503Z,99.90
2022-10-30T08:35:56.520Z,97.70
2022-10-30T08:38:27.439Z,1.00
2022-10-30T08:41:05.461Z,1.00
2022-10-30T08:43:40.179Z,99.90
2022-10-30T08:46:10.274Z,1.00
2022-10-30T08:48:49.595Z,1.00
2022-10-30T08:51:19.895Z,1.00
2022-10-30T08:53:51.894Z,1.00
2022-10-30T08:56:22.130Z,1.00
2022-10-30T08:58:55.079Z,1.00
2022-10-30T09:01:25.286Z,1.00
2022-10-30T09:03:58.372Z,1.00
2022-10-30T09:06:30.020Z,99.90
2022-10-30T09:09:00.155Z,1.00
2022-10-30T09:11:30.217Z,1.00
2022-10-30T09:14:05.886Z,99.90
2022-10-30T09:16:36.088Z,99.90
2022-10-30T09:19:09.300Z,22.60
2022-10-30T09:21:39.426Z,1.00
2022-10-30T09:24:10.909Z,70.70
2022-10-30T09:26:40.999Z,99.90
2022-10-30T09:29:13.732Z,39.70
2022-10-30T09:31:43.795Z,1.00
2022-10-30T09:34:14.027Z,1.00
2022-10-30T09:36:46.258Z,1.00
2022-10-30T09:39:18.989Z,1.00
2022-10-30T09:42:21.068Z,1.00
2022-10-30T09:45:30.802Z,1.00
2022-10-30T09:48:20.344Z,1.00
2022-10-30T09:51:05.059Z,1.00
2022-10-30T09:53:51.549Z,1.00
2022-10-30T09:56:32.092Z,1.00
2022-10-30T09:59:23.043Z,1.00
2022-10-30T10:02:04.002Z,1.00
2022-10-30T10:04:45.821Z,1.00
2022-10-30T10:07:26.707Z,1.00
2022-10-30T10:10:05.904Z,1.00
2022-10-30T10:12:43.548Z,1.00
2022-10-30T10:15:26.451Z,1.00
2022-10-30T10:18:02.032Z,99.90
2022-10-30T10:20:47.525Z,99.90
2022-10-30T10:23:22.457Z,99.90
2022-10-30T10:25:57.703Z,99.90
2022-10-30T10:28:57.348Z,99.90
2022-10-30T10:31:52.992Z,99.90
2022-10-30T10:34:55.401Z,99.90
2022-10-30T10:37:42.704Z,1.00
2022-10-30T10:40:35.618Z,40.70
2022-10-30T10:43:23.376Z,5.50
2022-10-30T10:46:14.393Z,97.90
2022-10-30T10:49:04.567Z,1.00
2022-10-30T10:51:43.335Z,1.00
2022-10-30T10:54:19.386Z,15.90
2022-10-30T10:56:56.770Z,99.90
2022-10-30T10:59:37.427Z,99.90
2022-10-30T11:02:43.093Z,99.90
2022-10-30T11:05:31.606Z,99.90
2022-10-30T11:08:15.299Z,99.90
2022-10-30T11:10:45.736Z,99.90
2022-10-30T11:13:16.867Z,1.00
2022-10-30T11:16:07.439Z,1.00
2022-10-30T11:18:38.876Z,1.00
2022-10-30T11:21:14.636Z,1.00
2022-10-30T11:23:50.048Z,1.00
2022-10-30T11:26:37.491Z,1.00
2022-10-30T11:29:17.394Z,1.00
2022-10-30T11:32:04.400Z,1.00
2022-10-30T11:34:40.005Z,1.00
2022-10-30T11:37:36.716Z,1.00
2022-10-30T11:40:20.843Z,1.00
2022-10-30T11:42:59.626Z,1.00
2022-10-30T11:45:37.003Z,1.00
2022-10-30T11:48:21.338Z,12.60
2022-10-30T11:51:00.049Z,63.20
2022-10-30T11:53:39.987Z,99.90
2022-10-30T11:56:24.904Z,1.00
2022-10-30T12:02:02.927Z,1.00
2022-10-30T12:04:34.696Z,1.00
2022-10-30T12:07:20.511Z,99.90
2022-10-30T12:09:51.501Z,99.90
2022-10-30T12:12:34.243Z,99.90
2022-10-30T12:15:21.150Z,1.00
2022-10-30T12:17:57.203Z,1.00
2022-10-30T12:20:27.620Z,1.00
2022-10-30T12:22:58.884Z,1.00
2022-10-30T12:25:34.037Z,1.00
2022-10-30T12:28:15.633Z,1.00
2022-10-30T12:30:56.180Z,3.50
2022-10-30T12:33:34.436Z,31.40
2022-10-30T12:36:12.894Z,99.90
2022-10-30T12:38:50.630Z,99.90
2022-10-30T12:41:28.050Z,99.90
2022-10-30T12:44:16.682Z,99.90
2022-10-30T12:46:54.175Z,99.90
2022-10-30T12:49:33.934Z,99.90
2022-10-30T12:52:22.737Z,99.90
2022-10-30T12:55:05.101Z,99.90
2022-10-30T12:57:41.394Z,1.00
2022-10-30T13:00:20.414Z,1.00
2022-10-30T13:03:02.914Z,1.00
2022-10-30T13:05:43.738Z,1.00
2022-10-30T13:08:28.652Z,1.00
2022-10-30T13:11:12.395Z,99.90
2022-10-30T13:13:49.878Z,99.90
2022-10-30T13:16:36.033Z,99.90
2022-10-30T13:19:08.764Z,99.90
2022-10-30T13:21:49.083Z,99.90
2022-10-30T13:24:26.317Z,99.90
2022-10-30T13:27:01.430Z,1.00
2022-10-30T13:29:42.408Z,1.00
2022-10-30T13:32:38.407Z,1.00
2022-10-30T13:35:32.127Z,1.00
2022-10-30T13:38:21.042Z,1.00
2022-10-30T13:41:01.776Z,1.00
2022-10-30T13:43:44.230Z,1.00
2022-10-30T13:46:53.535Z,99.90
2022-10-30T13:49:51.483Z,99.90
2022-10-30T13:55:29.615Z,1.00
2022-10-30T13:58:11.758Z,99.90
2022-10-30T14:01:03.126Z,1.00
2022-10-30T14:03:56.606Z,1.00
2022-10-30T14:06:42.182Z,1.00
2022-10-30T14:09:30.210Z,99.90
2022-10-30T14:12:04.836Z,1.00
2022-10-30T14:14:36.307Z,1.00
2022-10-30T14:17:20.856Z,1.00
2022-10-30T14:20:30.802Z,1.00
2022-10-30T14:23:18.514Z,99.90
2022-10-30T14:26:22.141Z,99.90
2022-10-30T14:28:57.701Z,1.00
2022-10-30T14:31:41.781Z,99.90
2022-10-30T14:34:44.619Z,1.00
2022-10-30T14:37:16.511Z,99.90
2022-10-30T14:39:54.355Z,99.90
2022-10-30T14:42:30.866Z,99.90
2022-10-30T14:45:18.326Z,1.00
2022-10-30T14:48:04.247Z,90.70
2022-10-30T14:50:49.502Z,99.90
2022-10-30T14:53:49.155Z,1.00
2022-10-30T14:56:43.898Z,99.90
2022-10-30T14:59:27.154Z,1.00
2022-10-30T15:02:23.578Z,99.90
2022-10-30T15:05:20.409Z,99.90
2022-10-30T15:08:00.354Z,99.90
2022-10-30T15:10:36.189Z,84.20
2022-10-30T15:13:21.119Z,1.00
2022-10-30T15:16:03.610Z,1.00
2022-10-30T15:18:34.597Z,99.90
2022-10-30T15:21:16.808Z,99.90
2022-10-30T15:24:01.239Z,99.90
2022-10-30T15:26:41.343Z,99.90
2022-10-30T15:29:23.541Z,99.90
2022-10-30T15:32:04.811Z,99.90
2022-10-30T15:34:35.990Z,99.90
2022-10-30T15:37:15.230Z,1.00
2022-10-30T15:39:45.349Z,1.00
2022-10-30T15:42:16.282Z,1.00
2022-10-30T15:44:51.888Z,1.00
2022-10-30T15:47:23.663Z,1.00
2022-10-30T15:49:57.220Z,1.00
2022-10-30T15:52:31.340Z,1.00
2022-10-30T15:55:06.048Z,1.00
2022-10-30T15:58:13.085Z,1.00
2022-10-30T16:00:42.278Z,1.00
2022-10-30T16:03:20.860Z,1.00
2022-10-30T16:05:51.392Z,1.00
2022-10-30T16:08:28.478Z,1.00
2022-10-30T16:10:59.302Z,1.00
2022-10-30T16:13:34.080Z,1.00
2022-10-30T16:16:24.589Z,1.00
2022-10-30T16:18:56.942Z,1.00
2022-10-30T16:21:31.157Z,1.00
2022-10-30T16:24:05.420Z,1.00
2022-10-30T16:26:39.514Z,1.00
2022-10-30T16:29:25.866Z,1.00
2022-10-30T16:32:03.531Z,1.00
2022-10-30T16:34:36.965Z,1.00
2022-10-30T16:37:17.651Z,1.00
2022-10-30T16:39:50.513Z,1.00
2022-10-30T16:42:24.226Z,3.90
2022-10-30T16:45:10.419Z,8.20
2022-10-30T16:47:47.964Z,13.20
2022-10-30T16:50:20.530Z,25.20
2022-10-30T16:52:53.597Z,25.30
2022-10-30T16:55:25.623Z,30.30
2022-10-30T16:58:00.314Z,33.50
2022-10-30T17:00:44.692Z,57.20
2022-10-30T17:03:17.647Z,48.00
2022-10-30T17:05:59.930Z,49.50
2022-10-30T17:08:47.297Z,58.30
2022-10-30T17:11:25.528Z,63.10
2022-10-30T17:14:05.110Z,72.90
2022-10-30T17:16:42.808Z,76.80
2022-10-30T17:19:50.166Z,86.60
2022-10-30T17:22:26.475Z,95.10
2022-10-30T17:24:57.799Z,92.60
2022-10-30T17:27:49.479Z,83.90
2022-10-30T17:30:47.931Z,87.50
2022-10-30T17:33:45.363Z,80.90
2022-10-30T17:36:18.115Z,81.20
2022-10-30T17:38:48.182Z,92.70
2022-10-30T17:41:18.338Z,96.80
2022-10-30T17:43:54.776Z,99.90
2022-10-30T17:46:25.246Z,99.90
2022-10-30T17:48:55.395Z,99.90
2022-10-30T17:51:29.328Z,99.90
2022-10-30T17:53:59.413Z,99.90
2022-10-30T17:56:34.309Z,99.90
2022-10-30T17:59:04.451Z,99.90
2022-10-30T18:01:34.618Z,99.90
2022-10-30T18:04:05.026Z,99.90
2022-10-30T18:06:37.854Z,99.90
2022-10-30T18:09:07.912Z,99.90
2022-10-30T18:11:40.776Z,99.90
2022-10-30T18:14:14.546Z,99.90
2022-10-30T18:16:44.637Z,99.90
2022-10-30T18:19:15.011Z,99.90
2022-10-30T18:21:51.832Z,99.90
2022-10-30T18:24:22.166Z,99.90
2022-10-30T18:26:53.872Z,99.90
2022-10-30T18:29:24.201Z,99.90
2022-10-30T18:31:54.315Z,99.90
2022-10-30T18:34:24.694Z,99.90
2022-10-30T18:36:58.565Z,99.90
2022-10-30T18:39:28.675Z,99.90
2022-10-30T18:41:58.875Z,99.90
2022-10-30T18:44:31.291Z,99.90
2022-10-30T18:47:03.218Z,99.90
2022-10-30T18:49:41.998Z,99.90
2022-10-30T18:52:14.759Z,99.90
2022-10-30T18:54:47.375Z,99.90
2022-10-30T18:57:23.451Z,99.90
2022-10-30T18:59:53.581Z,99.90
2022-10-30T19:02:26.766Z,99.90
2022-10-30T19:04:57.044Z,99.90
2022-10-30T19:07:32.075Z,99.90
2022-10-30T19:10:02.161Z,99.90
2022-10-30T19:12:33.519Z,99.90
2022-10-30T19:15:15.293Z,99.90
2022-10-30T19:17:48.687Z,99.90
2022-10-30T19:20:24.816Z,99.90
2022-10-30T19:23:06.607Z,99.90
2022-10-30T19:25:44.373Z,99.90
2022-10-30T19:28:19.762Z,99.90
2022-10-30T19:30:54.890Z,99.90
2022-10-30T19:33:29.352Z,99.90
2022-10-30T19:36:01.915Z,99.90
2022-10-30T19:38:35.738Z,99.90
2022-10-30T19:41:06.630Z,99.90
2022-10-30T19:43:48.910Z,99.90
2022-10-30T19:46:19.054Z,99.90
2022-10-30T19:48:58.146Z,99.90
2022-10-30T19:51:29.437Z,99.90
2022-10-30T19:54:11.595Z,99.90
2022-10-30T19:56:43.099Z,99.90
2022-10-30T19:59:15.847Z,99.90
2022-10-30T20:01:46.385Z,99.90
2022-10-30T20:04:19.571Z,99.90
2022-10-30T20:06:49.690Z,99.90
2022-10-30T20:09:22.441Z,99.90
2022-10-30T20:11:52.815Z,99.90
2022-10-30T20:14:22.907Z,99.90
2022-10-30T20:16:55.296Z,99.90
2022-10-30T20:19:32.653Z,99.90
2022-10-30T20:22:02.772Z,99.90
2022-10-30T20:24:35.473Z,99.90
2022-10-30T20:27:14.223Z,99.90
2022-10-30T20:29:50.209Z,99.90
2022-10-30T20:32:20.639Z,99.90
2022-10-30T20:34:59.630Z,99.90
2022-10-30T20:37:29.839Z,99.90
2022-10-30T20:40:06.550Z,99.90
2022-10-30T20:42:37.476Z,99.90
2022-10-30T20:45:09.706Z,99.90
2022-10-30T20:47:39.831Z,99.90
2022-10-30T20:50:11.335Z,99.90
2022-10-30T20:52:45.166Z,99.90
2022-10-30T20:55:18.604Z,99.90
2022-10-30T20:57:48.716Z,99.90
2022-10-30T21:00:21.694Z,99.90
2022-10-30T21:02:54.545Z,99.90
2022-10-30T21:05:43.327Z,99.90
2022-10-30T21:08:15.285Z,99.90
2022-10-30T21:10:47.966Z,99.90
2022-10-30T21:13:18.044Z,99.90
2022-10-30T21:15:48.161Z,99.90
2022-10-30T21:18:18.284Z,99.90
2022-10-30T21:20:48.449Z,99.90
2022-10-30T21:23:18.570Z,99.90
2022-10-30T21:25:53.830Z,99.90
2022-10-30T21:28:23.951Z,99.90
2022-10-30T21:30:59.773Z,99.90
2022-10-30T21:33:45.828Z,99.90
2022-10-30T21:36:20.989Z,99.90
2022-10-30T21:38:56.593Z,99.90
2022-10-30T21:41:29.515Z,99.90
2022-10-30T21:44:02.126Z,99.90
2022-10-30T21:46:35.656Z,99.90
2022-10-30T21:49:10.607Z,99.90
2022-10-30T21:51:42.435Z,99.90
2022-10-30T21:54:12.494Z,99.90
2022-10-30T21:56:45.184Z,99.90
2022-10-30T21:59:18.695Z,99.90
2022-10-30T22:01:51.695Z,99.90
2022-10-30T22:04:21.898Z,99.90
2022-10-30T22:06:52.032Z,99.90
2022-10-30T22:09:22.258Z,99.90
2022-10-30T22:11:58.060Z,99.90
2022-10-30T22:14:34.250Z,99.90
2022-10-30T22:17:04.387Z,99.90
2022-10-30T22:19:36.737Z,99.90
2022-10-30T22:22:06.984Z,99.90
2022-10-30T22:24:42.674Z,99.90
2022-10-30T22:27:15.380Z,99.90
2022-10-30T22:29:45.495Z,99.90
2022-10-30T22:32:16.155Z,99.90
2022-10-30T22:34:49.406Z,99.90
2022-10-30T22:37:24.871Z,99.90
2022-10-30T22:39:55.046Z,99.90
2022-10-30T22:42:27.763Z,99.90
2022-10-30T22:44:57.895Z,99.90
2022-10-30T22:47:27.988Z,99.90
2022-10-30T22:49:58.029Z,99.90
2022-10-30T22:52:30.421Z,99.90
2022-10-30T22:55:03.357Z,99.90
2022-10-30T22:57:36.098Z,99.90
2022-10-30T23:00:07.796Z,99.90
2022-10-30T23:02:37.931Z,99.90
2022-10-30T23:05:08.916Z,99.90
2022-10-30T23:07:39.014Z,99.90
2022-10-30T23:10:13.192Z,99.90
2022-10-30T23:12:48.376Z,99.90
2022-10-30T23:15:18.739Z,99.90
2022-10-30T23:17:51.159Z,99.90
2022-10-30T23:20:21.537Z,99.90
2022-10-30T23:22:51.726Z,99.90
2022-10-30T23:25:21.890Z,99.90
2022-10-30T23:27:58.663Z,99.90
2022-10-30T23:30:29.220Z,99.90
2022-10-30T23:32:59.580Z,99.90
2022-10-30T23:35:30.038Z,99.90
2022-10-30T23:38:03.042Z,99.90
2022-10-30T23:40:35.918Z,99.90
2022-10-30T23:43:08.593Z,99.90
2022-10-30T23:45:41.327Z,99.90
2022-10-30T23:48:11.470Z,99.90
2022-10-30T23:50:44.197Z,99.90
2022-10-30T23:53:14.277Z,99.90
2022-10-30T23:55:52.593Z,99.90
2022-10-30T23:58:25.374Z,99.90
